Time;durP1;ratioP1;P1;durP2;ratioP2;P2;SDS_P1;SDS_P2;PMS_P1;PMS_P2;Temp;Humidity;BMP_temperature;BMP_pressure;BME280_temperature;BME280_humidity;BME280_pressure;Samples;Min_cycle;Max_cycle;Signal;HPM_P1;HPM_P2
2023/01/17 07:06:16;;;;;;;11.23;8.90;;;;;;;-145.79;79.26;77048.75;5279674;28;20393;-71
2023/01/17 07:08:47;;;;;;;10.13;9.07;;;;;;;-145.79;79.45;77055.09;5280279;28;20049;-71
2023/01/17 07:11:19;;;;;;;14.20;8.55;;;;;;;-145.79;78.96;77055.09;5280213;28;20475;-72
2023/01/17 07:13:50;;;;;;;13.55;9.00;;;;;;;-145.79;79.27;77055.09;5279495;28;20025;-72
2023/01/17 07:16:21;;;;;;;13.63;8.23;;;;;;;-145.79;79.12;77059.34;5279628;28;20128;-72
2023/01/17 07:18:53;;;;;;;10.57;8.48;;;;;;;-145.79;79.04;77055.09;5278362;28;20044;-71
2023/01/17 07:21:25;;;;;;;15.57;8.68;;;;;;;-145.79;79.07;77057.22;5259849;28;20040;-71
2023/01/17 07:23:56;;;;;;;9.52;8.23;;;;;;;-145.79;79.17;77059.34;5259054;28;20017;-71
2023/01/17 07:26:27;;;;;;;12.73;9.65;;;;;;;-145.79;79.28;77059.34;5258348;28;20029;-72
2023/01/17 07:28:58;;;;;;;12.52;8.25;;;;;;;-145.79;78.74;77061.47;5259086;28;20112;-72
2023/01/17 07:31:34;;;;;;;11.25;8.55;;;;;;;-145.79;79.07;77061.47;5275966;28;20090;-72
2023/01/17 07:34:05;;;;;;;9.50;7.53;;;;;;;-145.79;78.56;77055.09;5278712;28;20068;-71
2023/01/17 07:36:36;;;;;;;14.77;8.23;;;;;;;-145.79;78.30;77059.34;5273339;28;20072;-72
2023/01/17 07:39:08;;;;;;;13.40;8.60;;;;;;;-145.79;77.79;77061.47;5258692;28;20061;-69
2023/01/17 07:41:40;;;;;;;12.20;8.63;;;;;;;-145.79;78.11;77067.81;5258269;28;20100;-69
2023/01/17 07:44:12;;;;;;;13.85;9.77;;;;;;;-145.79;78.11;77057.22;5258429;28;20121;-70
2023/01/17 07:46:43;;;;;;;10.55;8.82;;;;;;;-145.79;78.42;77044.50;5258608;28;20376;-70
2023/01/17 07:49:15;;;;;;;11.00;9.15;;;;;;;-145.79;78.20;77052.97;5271937;28;20028;-70
2023/01/17 07:51:46;;;;;;;12.65;9.23;;;;;;;-145.79;77.86;77052.97;5262681;28;20029;-71
2023/01/17 07:54:17;;;;;;;11.68;9.52;;;;;;;-145.79;77.04;77055.09;5268807;28;20044;-69
2023/01/17 07:56:49;;;;;;;12.95;8.77;;;;;;;-145.79;77.64;77050.88;5279266;28;20086;-69
2023/01/17 07:59:20;;;;;;;13.15;10.27;;;;;;;-145.79;77.27;77057.22;5257931;28;20033;-69
2023/01/17 08:01:57;;;;;;;13.10;9.32;;;;;;;-145.79;77.47;77052.97;5257593;28;20357;-69
2023/01/17 08:04:33;;;;;;;12.32;9.57;;;;;;;-145.79;78.30;77040.25;5258304;28;20045;-71
2023/01/17 08:07:04;;;;;;;13.25;8.95;;;;;;;-145.79;78.17;77040.25;5257231;28;20148;-71
2023/01/17 08:09:36;;;;;;;14.43;9.40;;;;;;;-145.79;77.22;77029.66;5256658;28;20184;-71
2023/01/17 08:12:07;;;;;;;11.70;9.50;;;;;;;-145.79;77.18;77048.75;5276104;28;20024;-71
2023/01/17 08:14:38;;;;;;;13.38;9.27;;;;;;;-145.79;76.94;77048.75;5278595;28;20043;-71
2023/01/17 08:17:13;;;;;;;10.75;9.30;;;;;;;-145.79;77.47;77044.50;5261049;28;20017;-71
2023/01/17 08:19:44;;;;;;;13.93;9.88;;;;;;;-145.79;77.16;77046.63;5243972;28;20022;-71
2023/01/17 08:22:16;;;;;;;16.00;11.02;;;;;;;-145.79;76.91;77033.91;5243317;28;20031;-71
2023/01/17 08:24:47;;;;;;;13.70;9.60;;;;;;;-145.79;76.64;77044.50;5243795;28;20126;-72
2023/01/17 08:27:19;;;;;;;14.52;9.75;;;;;;;-145.79;76.64;77033.91;5247022;28;20024;-72
2023/01/17 08:29:50;;;;;;;12.85;9.82;;;;;;;-145.79;76.51;77033.91;5264033;28;20083;-71
2023/01/17 08:32:22;;;;;;;16.77;10.10;;;;;;;-145.79;76.39;77040.25;5264794;28;20029;-71
2023/01/17 08:34:55;;;;;;;12.02;10.10;;;;;;;-145.79;76.56;77031.78;5264446;28;20017;-71
2023/01/17 08:37:30;;;;;;;12.55;10.35;;;;;;;-145.79;76.48;77046.63;5263593;28;20438;-71
2023/01/17 08:40:02;;;;;;;14.07;10.18;;;;;;;-145.79;76.80;77046.63;5264618;28;20028;-71
2023/01/17 08:42:38;;;;;;;16.27;10.05;;;;;;;-145.79;76.40;77042.38;5264667;28;20018;-71
2023/01/17 08:45:10;;;;;;;14.43;11.23;;;;;;;-145.79;76.51;77040.25;5262138;28;20040;-72
2023/01/17 08:47:42;;;;;;;15.45;11.30;;;;;;;-145.79;76.69;77029.66;5262940;28;20455;-72
2023/01/17 08:50:19;;;;;;;14.00;10.13;;;;;;;-145.79;76.30;77025.44;5263655;28;20167;-71
2023/01/17 08:52:59;;;;;;;13.05;10.25;;;;;;;-145.79;76.51;77012.72;5252870;28;20485;-72
2023/01/17 08:55:32;;;;;;;12.93;10.88;;;;;;;-145.79;76.26;77019.06;5243374;28;20090;-70
2023/01/17 08:58:03;;;;;;;12.02;10.35;;;;;;;-145.79;75.76;77014.84;5242209;28;20034;-70
2023/01/17 09:00:34;;;;;;;11.88;10.23;;;;;;;-145.79;75.82;77004.25;5243634;28;20052;-70
2023/01/17 09:03:09;;;;;;;12.13;10.20;;;;;;;-145.79;75.68;77004.25;5244483;28;20079;-70
2023/01/17 09:05:40;;;;;;;13.38;9.98;;;;;;;-145.79;75.31;77029.66;5247359;28;20047;-70
2023/01/17 09:08:11;;;;;;;16.10;10.68;;;;;;;-145.79;75.81;77010.59;5259356;28;20021;-71
2023/01/17 09:10:43;;;;;;;15.75;13.25;;;;;;;-145.79;75.81;77008.47;5243150;28;20022;-70
2023/01/17 09:13:14;;;;;;;16.55;11.65;;;;;;;-145.79;75.68;77012.72;5242176;28;20029;-71
2023/01/17 09:15:45;;;;;;;13.13;11.65;;;;;;;-145.79;75.25;77004.25;5243084;28;20033;-70
2023/01/17 09:18:17;;;;;;;17.25;11.32;;;;;;;-145.79;75.25;77006.34;5259126;28;20147;-70
2023/01/17 09:20:48;;;;;;;14.65;11.27;;;;;;;-145.79;75.14;77016.94;5242069;28;20018;-70
2023/01/17 09:23:23;;;;;;;15.63;11.93;;;;;;;-145.79;75.74;76987.28;5243426;28;20172;-70
2023/01/17 09:25:55;;;;;;;14.18;11.57;;;;;;;-145.79;75.53;76993.63;5253074;28;20037;-71
2023/01/17 09:28:27;;;;;;;16.80;11.15;;;;;;;-145.79;75.60;76995.75;5247600;28;20515;-71
2023/01/17 09:30:58;;;;;;;14.07;11.02;;;;;;;-145.79;75.32;76991.53;5259705;28;20154;-72
2023/01/17 09:33:29;;;;;;;14.23;10.80;;;;;;;-145.79;75.52;76985.16;5250532;28;20029;-71
2023/01/17 09:36:03;;;;;;;14.52;11.68;;;;;;;-145.79;75.35;76974.56;5253222;28;20025;-70
2023/01/17 09:38:36;;;;;;;15.18;10.65;;;;;;;-145.79;75.37;76966.09;5248847;28;20079;-70
2023/01/17 09:41:36;;;;;;;17.75;10.65;;;;;;;-145.79;75.04;76978.81;5253426;28;20130;-70
2023/01/17 09:44:27;;;;;;;19.73;11.32;;;;;;;-145.79;75.17;76972.44;5239629;28;20041;-71
2023/01/17 09:47:16;;;;;;;17.98;13.75;;;;;;;-145.79;75.28;76970.31;5251444;28;20059;-71
2023/01/17 09:49:47;;;;;;;12.52;9.75;;;;;;;-145.79;74.41;76972.44;5249739;28;20025;-70
2023/01/17 09:52:22;;;;;;;12.43;9.65;;;;;;;-145.79;75.04;76970.31;5259990;28;20032;-70
2023/01/17 09:54:53;;;;;;;12.43;10.40;;;;;;;-145.79;75.20;76953.38;5256678;28;20431;-70
2023/01/17 09:57:53;;;;;;;12.05;9.73;;;;;;;-145.79;73.76;76944.91;5251004;28;20017;-70
2023/01/17 10:00:32;;;;;;;11.77;9.43;;;;;;;-145.79;73.32;76953.38;5262505;28;20480;-71
2023/01/17 10:03:22;;;;;;;11.95;8.48;;;;;;;-145.79;73.30;76957.59;5241438;28;20488;-71
2023/01/17 10:06:05;;;;;;;13.80;9.02;;;;;;;-145.79;73.88;76953.38;5249438;28;20044;-70
2023/01/17 10:08:52;;;;;;;11.38;8.68;;;;;;;-145.79;74.48;76944.91;5260410;28;20105;-71
2023/01/17 10:11:48;;;;;;;12.65;8.73;;;;;;;-145.79;73.52;76930.06;5252107;28;20036;-70
2023/01/17 10:14:36;;;;;;;10.43;6.70;;;;;;;-145.79;73.30;76927.94;5261380;28;20033;-70
2023/01/17 10:17:19;;;;;;;13.50;9.15;;;;;;;-145.79;72.52;76910.97;5241715;28;20029;-70
2023/01/17 10:20:15;;;;;;;13.18;8.32;;;;;;;-145.79;72.16;76910.97;5258503;28;20025;-70
2023/01/17 10:22:57;;;;;;;17.15;11.32;;;;;;;-145.79;72.75;76904.63;5254512;28;20430;-70
2023/01/17 10:25:41;;;;;;;15.25;8.80;;;;;;;-145.79;72.16;76885.56;5282870;28;20029;-69
2023/01/17 10:28:21;;;;;;;11.55;7.35;;;;;;;-145.79;71.65;76877.06;5248459;28;20041;-70
2023/01/17 10:31:06;;;;;;;16.67;10.35;;;;;;;-145.79;71.81;76864.34;5280905;28;20032;-71
2023/01/17 10:33:48;;;;;;;16.17;8.93;;;;;;;-145.79;71.51;76851.63;5273558;28;20475;-70
2023/01/17 10:36:30;;;;;;;11.98;8.23;;;;;;;-145.79;71.46;76853.75;5261226;28;20037;-69
2023/01/17 10:39:14;;;;;;;12.68;9.10;;;;;;;-145.79;71.57;76847.41;5260127;28;20032;-70
2023/01/17 10:41:54;;;;;;;11.77;8.20;;;;;;;-145.79;71.49;76853.75;5282876;28;20491;-70
2023/01/17 10:44:57;;;;;;;10.43;8.43;;;;;;;-145.79;71.22;76847.41;5251991;28;20033;-72
2023/01/17 10:47:34;;;;;;;14.88;9.55;;;;;;;-145.79;69.94;76855.88;5261947;28;20025;-70
2023/01/17 10:50:10;;;;;;;11.55;7.57;;;;;;;-145.79;69.39;76855.88;5260829;28;20039;-70
2023/01/17 10:52:54;;;;;;;10.77;8.63;;;;;;;-145.79;70.10;76847.41;5261515;28;20033;-71
2023/01/17 10:55:38;;;;;;;14.88;11.13;;;;;;;-145.79;70.84;76841.03;5261492;28;20025;-71
2023/01/17 10:58:11;;;;;;;9.98;8.98;;;;;;;-145.79;70.09;76838.94;5252225;28;20080;-70
2023/01/17 11:00:46;;;;;;;14.07;9.45;;;;;;;-145.79;71.06;76828.31;5262148;28;20357;-71
2023/01/17 11:03:22;;;;;;;12.75;9.93;;;;;;;-145.79;70.17;76824.09;5250350;28;20025;-71
2023/01/17 11:06:21;;;;;;;14.65;10.57;;;;;;;-145.79;70.46;76813.50;5261068;28;20048;-71
2023/01/17 11:08:57;;;;;;;13.52;9.30;;;;;;;-145.79;69.96;76830.44;5237425;28;20037;-71
2023/01/17 11:11:31;;;;;;;10.90;9.43;;;;;;;-145.79;70.61;76813.50;5240212;28;20022;-71
2023/01/17 11:14:11;;;;;;;12.73;9.15;;;;;;;-145.79;69.55;76807.13;5241070;28;20368;-72
2023/01/17 11:16:42;;;;;;;11.98;9.60;;;;;;;-145.79;69.76;76779.59;5255763;28;20083;-72
2023/01/17 11:19:27;;;;;;;12.57;8.88;;;;;;;-145.79;70.09;76760.50;5241735;28;20033;-71
2023/01/17 11:22:03;;;;;;;14.30;8.73;;;;;;;-145.79;68.14;76754.16;5240646;28;20152;-71
2023/01/17 11:24:40;;;;;;;10.73;7.72;;;;;;;-145.79;67.58;76735.06;5245741;28;20033;-72
2023/01/17 11:27:33;;;;;;;12.52;8.43;;;;;;;-145.79;67.06;76743.56;5279150;28;20104;-71
2023/01/17 11:30:17;;;;;;;10.27;7.40;;;;;;;-145.79;67.39;76724.47;5266273;28;20040;-72
2023/01/17 11:33:00;;;;;;;10.88;7.53;;;;;;;-145.79;66.90;76724.47;5240236;28;20503;-71
2023/01/17 11:35:43;;;;;;;13.85;7.72;;;;;;;-145.79;67.16;76711.75;5241723;28;20072;-72
2023/01/17 11:38:22;;;;;;;7.57;6.65;;;;;;;-145.79;63.92;76707.53;5252982;28;20032;-74
2023/01/17 11:41:18;;;;;;;7.70;5.63;;;;;;;-145.79;63.38;76713.88;5260630;28;20464;-71
2023/01/17 11:43:54;;;;;;;9.35;6.50;;;;;;;-145.79;63.99;76699.06;5261407;28;20041;-72
2023/01/17 11:46:30;;;;;;;10.63;7.22;;;;;;;-145.79;63.57;76690.56;5258709;28;20112;-71
2023/01/17 11:49:01;;;;;;;;;;;;;;;-145.79;65.13;76665.16;5258093;28;20033;-71
2023/01/17 11:51:40;;;;;;;9.43;5.53;;;;;;;-145.79;62.82;76658.78;5257436;28;19963;-71
2023/01/17 11:54:25;;;;;;;7.03;6.32;;;;;;;-145.79;62.40;76660.91;5264504;28;20032;-71
2023/01/17 11:56:59;;;;;;;10.15;5.63;;;;;;;-145.79;61.47;76669.38;5264770;28;20032;-72
2023/01/17 11:59:41;;;;;;;8.60;5.00;;;;;;;-145.79;60.77;76688.44;5264712;28;20373;-73
2023/01/17 12:02:35;;;;;;;8.85;6.28;;;;;;;-145.79;61.86;76673.63;5246919;28;20037;-71
2023/01/17 12:05:26;;;;;;;9.40;5.38;;;;;;;-145.79;61.46;76665.16;5244089;28;20111;-71
2023/01/17 12:08:16;;;;;;;9.35;5.05;;;;;;;-145.79;59.82;76677.84;5251284;28;20095;-70
2023/01/17 12:11:16;;;;;;;7.82;5.28;;;;;;;-145.79;59.92;76656.66;5244269;28;20026;-70
2023/01/17 12:14:14;;;;;;;7.55;5.03;;;;;;;-145.79;59.48;76652.44;5264533;28;20453;-72
2023/01/17 12:17:00;;;;;;;13.43;5.78;;;;;;;-145.79;58.82;76665.16;5243919;28;20473;-71
2023/01/17 12:19:54;;;;;;;7.57;4.93;;;;;;;-145.79;58.29;76652.44;5244277;28;20033;-72
2023/01/17 12:23:01;;;;;;;7.45;4.78;;;;;;;-145.79;57.68;76648.19;5243108;28;20130;-72
2023/01/17 12:25:58;;;;;;;12.75;9.23;;;;;;;-145.79;56.65;76643.94;5244685;28;20492;-71
2023/01/17 12:28:58;;;;;;;7.95;4.60;;;;;;;-145.79;54.67;76648.19;5246095;28;20033;-71
2023/01/17 12:32:02;;;;;;;9.38;5.47;;;;;;;-145.79;57.66;76631.22;5242736;28;20078;-72
2023/01/17 12:34:41;;;;;;;4.63;3.35;;;;;;;-145.79;54.35;76622.75;5253350;28;20038;-70
2023/01/17 12:37:21;;;;;;;6.68;3.05;;;;;;;-145.79;52.36;76629.13;5256020;28;20054;-70
2023/01/17 12:40:03;;;;;;;6.50;3.67;;;;;;;-145.79;53.55;76637.59;5255804;28;20086;-70
2023/01/17 12:42:59;;;;;;;7.55;3.70;;;;;;;-145.79;54.86;76637.59;5257600;28;20099;-71
2023/01/17 12:45:37;;;;;;;9.02;4.57;;;;;;;-145.79;55.55;76633.34;5243204;28;20121;-71
2023/01/17 12:48:15;;;;;;;8.43;3.97;;;;;;;-145.79;55.83;76618.53;5243250;28;20431;-70
2023/01/17 12:51:04;;;;;;;6.13;3.90;;;;;;;-145.79;55.24;76610.03;5249083;28;20030;-73
2023/01/17 12:54:17;;;;;;;5.93;3.22;;;;;;;-145.79;53.38;76597.31;5242563;28;20116;-71
2023/01/17 12:56:52;;;;;;;6.95;6.32;;;;;;;-145.79;52.70;76578.25;5228764;28;20501;-72
2023/01/17 12:59:36;;;;;;;4.68;3.25;;;;;;;-145.79;52.18;76574.00;5267563;28;20021;-72
2023/01/17 13:02:33;;;;;;;5.35;2.88;;;;;;;-145.79;50.87;76597.31;5253030;28;20379;-71
2023/01/17 13:05:16;;;;;;;5.28;3.15;;;;;;;-145.79;51.15;76601.56;5276608;28;20029;-71
2023/01/17 13:08:01;;;;;;;6.40;3.15;;;;;;;-145.79;49.87;76620.63;5243185;28;20358;-71
2023/01/17 13:10:53;;;;;;;4.82;2.70;;;;;;;-145.79;51.00;76618.53;5252987;28;20033;-77
2023/01/17 13:13:27;;;;;;;5.18;3.42;;;;;;;-145.79;60.42;76565.53;5263486;28;20365;-71
2023/01/17 13:16:13;;;;;;;7.65;2.85;;;;;;;-145.79;64.12;76535.88;5245237;28;20044;-70
2023/01/17 13:18:46;;;;;;;3.10;2.80;;;;;;;-145.79;52.76;76574.00;5239922;28;20025;-71
2023/01/17 13:21:29;;;;;;;5.03;2.80;;;;;;;-145.79;51.94;76580.38;5257094;28;20029;-71
2023/01/17 13:24:14;;;;;;;6.10;3.70;;;;;;;-145.79;52.07;76582.50;5241833;28;20385;-71
2023/01/17 13:27:03;;;;;;;7.73;4.10;;;;;;;-145.79;52.10;76571.91;5258951;28;20036;-73
2023/01/17 13:29:55;;;;;;;6.57;3.90;;;;;;;-145.79;52.27;76588.84;5260148;28;20329;-71
2023/01/17 13:32:55;;;;;;;3.58;2.78;;;;;;;-145.79;52.30;76580.38;5261183;28;20068;-71
2023/01/17 13:35:35;;;;;;;5.93;3.28;;;;;;;-145.79;51.12;76576.13;5257281;28;20029;-72
2023/01/17 13:38:07;;;;;;;7.43;2.83;;;;;;;-145.79;49.61;76571.91;5245003;28;20041;-72
2023/01/17 13:40:54;;;;;;;4.75;3.00;;;;;;;-145.79;50.74;76544.34;5270950;28;20046;-74
2023/01/17 13:43:34;;;;;;;5.38;3.10;;;;;;;-145.79;50.09;76540.09;5244027;28;20025;-70
2023/01/17 13:46:06;;;;;;;8.15;5.47;;;;;;;-145.79;50.12;76538.00;5245099;28;20028;-71
2023/01/17 13:48:39;;;;;;;14.65;9.57;;;;;;;-145.79;49.59;76535.88;5262024;28;20035;-71
2023/01/17 13:51:10;;;;;;;8.10;4.57;;;;;;;-145.79;49.12;76546.47;5253614;28;20029;-70
2023/01/17 13:53:42;;;;;;;4.72;3.00;;;;;;;-145.79;50.31;76531.63;5261170;28;20047;-69
2023/01/17 13:56:30;;;;;;;3.55;3.00;;;;;;;-145.79;49.48;76525.28;5261466;28;20091;-70
2023/01/17 13:59:03;;;;;;;6.32;3.40;;;;;;;-145.79;49.23;76538.00;5261604;28;20021;-71
2023/01/17 14:01:44;;;;;;;4.05;2.88;;;;;;;-145.79;48.13;76542.22;5256508;28;20024;-72
2023/01/17 14:04:15;;;;;;;5.18;3.38;;;;;;;-145.79;49.58;76527.38;5261481;28;20408;-72
2023/01/17 14:06:55;;;;;;;5.13;3.00;;;;;;;-145.79;50.25;76508.31;5260780;28;20033;-73
2023/01/17 14:09:36;;;;;;;8.90;4.43;;;;;;;-145.79;50.04;76514.69;5251727;28;20036;-72
2023/01/17 14:12:08;;;;;;;8.45;4.00;;;;;;;-145.79;49.81;76504.09;5250386;28;20095;-72
2023/01/17 14:14:39;;;;;;;6.13;3.17;;;;;;;-145.79;48.59;76510.44;5256239;28;20037;-72
2023/01/17 14:17:21;;;;;;;6.35;3.22;;;;;;;-145.79;49.18;76508.31;5255498;28;20095;-71
2023/01/17 14:20:17;;;;;;;8.32;3.58;;;;;;;-145.79;48.27;76531.63;5261474;28;20377;-70
2023/01/17 14:22:57;;;;;;;13.50;4.20;;;;;;;-145.79;48.39;76538.00;5256947;28;20052;-71
2023/01/17 14:25:36;;;;;;;4.97;3.58;;;;;;;-145.79;49.05;76527.38;5252559;28;20103;-72
2023/01/17 14:28:22;;;;;;;6.13;3.45;;;;;;;-145.79;52.92;76523.16;5260377;28;20822;-72
2023/01/17 14:30:55;;;;;;;7.65;5.43;;;;;;;-145.79;55.57;76491.38;5259352;28;20028;-73
2023/01/17 14:33:29;;;;;;;8.27;4.32;;;;;;;-145.79;50.55;76499.84;5261025;28;20029;-72
2023/01/17 14:36:06;;;;;;;4.78;3.15;;;;;;;-145.79;57.48;76448.97;5260252;28;20025;-74
2023/01/17 14:38:43;;;;;;;4.95;2.80;;;;;;;-145.79;55.23;76459.56;5244910;28;20034;-73
2023/01/17 14:41:21;;;;;;;4.93;3.80;;;;;;;-145.79;55.12;76465.94;5246010;28;20064;-73
2023/01/17 14:43:53;;;;;;;5.25;3.08;;;;;;;-145.79;54.24;76482.88;5239521;28;20029;-73
2023/01/17 14:46:31;;;;;;;8.73;3.10;;;;;;;-145.79;58.73;76478.66;5255895;28;20032;-73
2023/01/17 14:49:05;;;;;;;8.38;3.92;;;;;;;-145.79;52.26;76482.88;5257164;28;20039;-73
2023/01/17 14:51:37;;;;;;;11.35;7.68;;;;;;;-145.79;48.51;76521.03;5244465;28;20021;-74
2023/01/17 14:54:19;;;;;;;5.18;2.40;;;;;;;-145.79;47.91;76533.75;5260839;28;20079;-74
2023/01/17 14:56:51;;;;;;;4.97;2.50;;;;;;;-145.79;47.24;76554.94;5259637;28;20033;-74
2023/01/17 14:59:22;;;;;;;9.88;3.10;;;;;;;-145.79;49.58;76538.00;5250039;28;20028;-74
2023/01/17 15:02:00;;;;;;;4.43;2.78;;;;;;;-145.79;55.39;76501.97;5248753;28;20099;-73
2023/01/17 15:04:36;;;;;;;6.35;2.90;;;;;;;-145.79;49.77;76521.03;5260069;28;20051;-73
2023/01/17 15:07:14;;;;;;;6.43;2.33;;;;;;;-145.79;47.80;76552.81;5260516;28;20017;-72
2023/01/17 15:09:46;;;;;;;12.15;6.65;;;;;;;-145.79;47.44;76574.00;5258858;28;20017;-72
2023/01/17 15:12:20;;;;;;;7.32;3.90;;;;;;;-145.79;47.25;76593.09;5259759;28;20456;-73
2023/01/17 15:14:57;;;;;;;8.02;4.60;;;;;;;-145.79;47.85;76618.53;5260444;28;20029;-71
2023/01/17 15:17:28;;;;;;;6.82;3.80;;;;;;;-145.79;48.43;76607.91;5253409;28;20029;-70
2023/01/17 15:20:07;;;;;;;14.75;8.50;;;;;;;-145.79;48.66;76629.13;5256128;28;20017;-71
2023/01/17 15:22:38;;;;;;;11.05;4.53;;;;;;;-145.79;48.84;76629.13;5275139;28;20105;-71
2023/01/17 15:25:10;;;;;;;7.55;3.63;;;;;;;-145.79;48.97;76648.19;5278505;28;20063;-71
2023/01/17 15:27:43;;;;;;;8.88;4.72;;;;;;;-145.79;49.73;76656.66;5263777;28;20425;-70
2023/01/17 15:30:15;;;;;;;7.45;4.10;;;;;;;-145.79;49.97;76673.63;5264601;28;20033;-71
2023/01/17 15:32:46;;;;;;;5.05;3.10;;;;;;;-145.79;49.57;76660.91;5256501;28;20484;-70
2023/01/17 15:35:19;;;;;;;7.63;4.68;;;;;;;-145.79;50.05;76665.16;5256698;28;20051;-69
2023/01/17 15:37:53;;;;;;;6.00;3.75;;;;;;;-145.79;50.58;76677.84;5264236;28;20107;-70
2023/01/17 15:40:25;;;;;;;5.68;3.05;;;;;;;-145.79;50.70;76665.16;5262881;28;20371;-71
2023/01/17 15:42:59;;;;;;;9.95;6.75;;;;;;;-145.79;51.40;76669.38;5262876;28;20029;-70
2023/01/17 15:45:32;;;;;;;10.55;4.07;;;;;;;-145.79;51.91;76703.28;5263355;28;20320;-71
2023/01/17 15:48:29;;;;;;;9.60;5.32;;;;;;;-145.79;52.21;76690.56;5264088;28;20036;-69
2023/01/17 15:51:01;;;;;;;10.95;5.30;;;;;;;-145.79;52.13;76707.53;5252116;28;20150;-70
2023/01/17 15:53:37;;;;;;;10.90;7.10;;;;;;;-145.79;52.18;76707.53;5263727;28;20056;-70
2023/01/17 15:56:44;;;;;;;30.25;13.50;;;;;;;-145.79;53.03;76701.16;5262542;28;20130;-71
2023/01/17 15:59:21;;;;;;;37.15;22.80;;;;;;;-145.79;53.68;76720.25;5239633;28;20136;-71
2023/01/17 16:01:57;;;;;;;6.07;4.95;;;;;;;-145.79;53.49;76720.25;5243603;28;20036;-71
2023/01/17 16:04:33;;;;;;;10.80;5.00;;;;;;;-145.79;53.09;76711.75;5262482;28;20045;-73
2023/01/17 16:07:09;;;;;;;6.13;4.68;;;;;;;-145.79;52.98;76728.72;5253660;28;20028;-73
2023/01/17 16:09:42;;;;;;;;;;;;;;;-145.79;53.69;76703.28;5243844;28;20037;-74
2023/01/17 16:12:14;;;;;;;10.45;5.10;;;;;;;-145.79;53.60;76728.72;5257719;28;19924;-74
2023/01/17 16:14:45;;;;;;;10.40;5.80;;;;;;;-145.79;54.41;76745.69;5252854;28;20053;-73
2023/01/17 16:17:16;;;;;;;16.95;11.48;;;;;;;-145.79;55.14;76758.38;5242324;28;20038;-73
2023/01/17 16:19:48;;;;;;;22.15;16.55;;;;;;;-145.79;56.32;76771.09;5246515;28;20534;-73
2023/01/17 16:22:19;;;;;;;30.55;22.77;;;;;;;-145.79;56.38;76783.81;5261178;28;20029;-74
2023/01/17 16:24:54;;;;;;;21.00;15.00;;;;;;;-145.79;57.40;76790.19;5247603;28;20033;-73
2023/01/17 16:27:25;;;;;;;24.23;17.60;;;;;;;-145.79;57.09;76798.66;5248676;28;20021;-73
2023/01/17 16:29:57;;;;;;;22.10;13.65;;;;;;;-145.79;56.98;76805.00;5263659;28;20029;-73
2023/01/17 16:32:28;;;;;;;20.35;15.32;;;;;;;-145.79;58.30;76796.53;5260787;28;20079;-73
2023/01/17 16:35:03;;;;;;;18.00;10.35;;;;;;;-145.79;57.85;76796.53;5268182;28;20036;-73
2023/01/17 16:37:34;;;;;;;10.63;7.00;;;;;;;-145.79;58.71;76809.25;5284014;28;20062;-73
